Sunnyslope, Washington
Current Conditions -  °F | °C
As of 8:15 PM on Wednesday 22 Oct 2014 (Local Time) from KPWT Reporting Station
Overcast Overcast  
Wind Chill: 54°   Ceiling: 1700
Heat Index: 54°   Visibility: 9mi
Dew Point: 54°   Wind: 16mph
Humidity: 100%   Direction: 180°S
Pressure: 29.61"   Gusts: 26mph
Location:  47.5378°N, 122.589°W
Report Text: KPWT 230315Z AUTO 18014G23KT 9SM SCT005 BKN017 OVC050 12/12 A2961 RMK AO1 P0009
Loading
Personal Weather Stations






























Interactive Weather Map
Tropical Storm Tracking
New forecast layout! Learn more

10-Day Weather Forecast

Advertisements
Track Severe Weather on mobile